Flight Track Log - Related Links

Times and Time Zones

All times are in EDT time to prevent confusion due to time zone crossing. See the N52522 flight status page for this flight to view local times or setup timezone preferences in your user account.

Time Position Orientation Groundspeed Altitude Reporting Facility
EDT Latitude Longitude Course Direction KTS MPH feet Rate Location/Type
Thu 01:00:17 PM 41.7989 -83.8422 182° South 91 105 4,400  Level Cleveland Center
Thu 01:01:18 PM 41.7717 -83.8436 182° South 97 112 4,500 52 Climbing Cleveland Center
Thu 01:02:13 PM 41.7508 -83.8508 195° South 94 108 4,500 -52 Level Cleveland Center
Thu 01:03:14 PM 41.7214 -83.8578 190° South 97 112 4,400 -52 Descending Cleveland Center
Thu 01:04:09 PM 41.6983 -83.8650 193° South 92 106 4,400  Level Cleveland Center
Thu 01:05:10 PM 41.6731 -83.8664 182° South 92 106 4,400  Level Cleveland Center
Thu 01:06:17 PM 41.6439 -83.8733 190° South 88 101 4,400  Level Cleveland Center
Thu 01:07:18 PM 41.6206 -83.8803 193° South 91 105 4,400 49 Level Cleveland Center
Thu 01:08:19 PM 41.5914 -83.8844 186° South 98 113 4,500 50 Climbing Cleveland Center
Thu 01:09:19 PM 41.5661 -83.8914 192° South 99 114 4,500 -52 Level Cleveland Center
Thu 01:10:14 PM 41.5408 -83.8958 187° South 98 113 4,400 -58 Descending Cleveland Center
Thu 01:11:03 PM 41.5200 -83.9003 189° South 96 110 4,400  Level Cleveland Center
Thu 01:12:28 PM 41.4844 -83.9067 188° South 93 107 4,400  Level Cleveland Center
Thu 01:13:16 PM 41.4633 -83.9111 189° South 91 105 4,400  Level Cleveland Center
Thu 01:14:11 PM 41.4381 -83.9183 192° South 93 107 4,400  Level Cleveland Center
Thu 01:15:30 PM 41.4044 -83.9247 188° South 96 110 4,400  Level Cleveland Center
Thu 01:16:13 PM 41.3878 -83.9267 185° South 98 113 4,400  Level Cleveland Center
Thu 01:17:20 PM 41.3564 -83.9361 193° South 95 109 4,400  Level Cleveland Center
Thu 01:18:14 PM 41.3333 -83.9378 183° South 95 109 4,400  Level Cleveland Center
Thu 01:19:33 PM 41.2997 -83.9469 192° South 97 112 4,400  Level Cleveland Center
Thu 01:20:22 PM 41.2767 -83.9514 188° South 97 112 4,400  Level Cleveland Center
Thu 01:21:23 PM 41.2514 -83.9583 192° South 95 109 4,400  Level Cleveland Center
Thu 01:22:24 PM 41.2261 -83.9625 187° South 95 109 4,400  Level Cleveland Center
Thu 01:23:31 PM 41.1969 -83.9694 190° South 95 109 4,400  Level Cleveland Center
Thu 01:24:32 PM 41.1675 -83.9733 186° South 97 112 4,400  Level Cleveland Center
Thu 01:25:33 PM 41.1422 -83.9803 192° South 99 114 4,400  Level Cleveland Center
Thu 01:26:28 PM 41.1214 -83.9847 189° South 99 114 4,400  Level Cleveland Center
Thu 01:27:28 PM 41.0942 -83.9861 182° South 100 115 4,400 52 Level Cleveland Center
Thu 01:28:23 PM 41.0650 -84.0092 211° Southwest 106 122 4,500 51 Climbing Indianapolis Center
Thu 01:29:25 PM 41.0336 -84.0144 187° South 105 121 4,500  Level Indianapolis Center
Thu 01:30:27 PM 41.0044 -84.0169 184° South 103 119 4,500  Level Indianapolis Center
Thu 01:31:29 PM 40.9794 -84.0278 198° South 102 117 4,500  Level Indianapolis Center
Thu 01:32:31 PM 40.9503 -84.0358 192° South 106 122 4,500  Level Indianapolis Center
Thu 01:33:33 PM 40.9211 -84.0467 196° South 104 120 4,500  Level Indianapolis Center
Thu 01:34:35 PM 40.8958 -84.0683 213° Southwest 109 125 4,500  Level Indianapolis Center
Thu 01:35:37 PM 40.8689 -84.0903 212° Southwest 106 122 4,500  Level Indianapolis Center
Thu 01:36:39 PM 40.8478 -84.1256 232° Southwest 127 146 4,500  Level Indianapolis Center
Thu 01:37:41 PM 40.8186 -84.1308 188° South 103 119 4,500  Level Indianapolis Center
Thu 01:38:43 PM 40.7914 -84.1361 188° South 101 116 4,500 -48 Level Indianapolis Center
Thu 01:39:45 PM 40.7642 -84.1236 161° South 109 125 4,400 -48 Descending Indianapolis Center
Thu 01:40:48 PM 40.7350 -84.1294 189° South 107 123 4,400  Level Indianapolis Center
Thu 01:41:49 PM 40.7075 -84.1347 188° South 103 119 4,400 49 Level Indianapolis Center
Thu 01:42:50 PM 40.6758 -84.1372 183° South 97 112 4,500 48 Climbing Indianapolis Center
Thu 01:43:53 PM 40.6481 -84.1456 193° South 98 113 4,500  Level Indianapolis Center
Thu 01:44:56 PM 40.6183 -84.1514 188° South 102 117 4,500  Level Indianapolis Center
Thu 01:45:58 PM 40.5881 -84.1561 187° South 106 122 4,500  Level Indianapolis Center
Thu 01:47:00 PM 40.5586 -84.1628 190° South 107 123 4,500  Level Indianapolis Center
Thu 01:48:02 PM 40.5306 -84.1681 188° South 105 121 4,500  Level Indianapolis Center
Thu 01:49:04 PM 40.5031 -84.1719 186° South 101 116 4,500  Level Indianapolis Center
Thu 01:50:06 PM 40.4739 -84.1775 188° South 103 119 4,500  Level Indianapolis Center
Thu 01:51:08 PM 40.4422 -84.1836 188° South 101 116 4,500 48 Level Indianapolis Center
Thu 01:52:10 PM 40.4133 -84.1886 188° South 101 116 4,600 339 Climbing Indianapolis Center
Thu 01:53:12 PM 40.3872 -84.1944 190° South 99 114 5,200 639 Climbing Indianapolis Center
Thu 01:54:12 PM 40.3633 -84.1972 185° South 78 90 5,900 581 Climbing Indianapolis Center
Thu 01:55:16 PM 40.3450 -84.2014 190° South 81 93 6,400 281 Climbing Indianapolis Center
Thu 01:56:20 PM 40.3186 -84.2050 186° South 83 96 6,500 48 Climbing Indianapolis Center
Thu 01:57:20 PM 40.2922 -84.2111 190° South 86 99 6,500  Level Indianapolis Center
Thu 01:58:22 PM 40.2661 -84.2189 193° South 92 106 6,500 48 Level Indianapolis Center
Thu 01:59:24 PM 40.2394 -84.2314 200° South 95 109 6,600 45 Climbing Indianapolis Center
Thu 02:00:36 PM 40.2025 -84.2414 192° South 104 120 6,600 -48 Level Indianapolis Center
Thu 02:01:28 PM 40.1822 -84.2478 194° South 103 119 6,500 -53 Descending Indianapolis Center
Thu 02:02:30 PM 40.1531 -84.2536 189° South 104 120 6,500  Level Indianapolis Center
Thu 02:03:33 PM 40.1253 -84.2514 176° South 102 117 6,500  Level Indianapolis Center
Thu 02:04:35 PM 40.0917 -84.2506 179° South 103 119 6,500  Level Indianapolis Center
Thu 02:05:37 PM 40.0633 -84.2575 191° South 102 117 6,500  Level Indianapolis Center
Thu 02:06:39 PM 40.0347 -84.2619 187° South 103 119 6,500  Level Indianapolis Center
Thu 02:07:36 PM 40.0075 -84.2725 197° South 101 116 6,500  Level Indianapolis Center
Thu 02:08:43 PM 39.9797 -84.2769 187° South 100 115 6,500 47 Level Indianapolis Center
Thu 02:09:44 PM 39.9481 -84.2808 185° South 98 113 6,600 49 Climbing Indianapolis Center
Thu 02:10:45 PM 39.9225 -84.2856 188° South 98 113 6,600  Level Indianapolis Center
Thu 02:11:49 PM 39.8933 -84.2875 183° South 97 112 6,600 48 Level Indianapolis Center
Thu 02:12:51 PM 39.8678 -84.2894 183° South 93 107 6,700  Climbing Indianapolis Center
Thu 02:13:53 PM 39.8428 -84.2986 196° South 94 108 6,600 -57 Descending Indianapolis Center
Thu 02:14:37 PM 39.8225 -84.3047 193° South 98 113 6,600  Level Indianapolis Center
Thu 02:14:55 PM 39.8158 -84.3053 184° South 96 110 6,600 90 Level Indianapolis Center
Thu 02:15:44 PM 39.7928 -84.3092 187° South 94 108 6,700 48 Climbing Indianapolis Center
Thu 02:16:59 PM 39.7636 -84.3061 175° South 93 107 6,700  Level Indianapolis Center
Thu 02:18:01 PM 39.7367 -84.3119 189° South 96 110 6,700 50 Level Indianapolis Center
Thu 02:18:59 PM 39.7061 -84.3164 186° South 98 113 6,800 48 Climbing Indianapolis Center
Thu 02:20:05 PM 39.6769 -84.3228 190° South 98 113 6,800  Level Indianapolis Center
Thu 02:21:07 PM 39.6481 -84.3231 180° South 102 117 6,800 -48 Level Indianapolis Center
Thu 02:22:09 PM 39.6183 -84.3292 189° South 105 121 6,700  Descending Indianapolis Center
Thu 02:23:11 PM 39.5911 -84.3353 190° South 102 117 6,800 145 Climbing Indianapolis Center
Thu 02:24:13 PM 39.5642 -84.3378 184° South 98 113 7,000 240 Climbing Indianapolis Center
Thu 02:25:16 PM 39.5394 -84.3381 180° South 92 106 7,300 144 Climbing Indianapolis Center
Thu 02:26:18 PM 39.5094 -84.3494 196° South 96 110 7,300  Level Indianapolis Center
Thu 02:27:20 PM 39.4825 -84.3564 191° South 97 112 7,300  Level Indianapolis Center
Thu 02:28:22 PM 39.4556 -84.3575 182° South 96 110 7,300 -48 Level Indianapolis Center
Thu 02:29:24 PM 39.4303 -84.3639 191° South 94 108 7,200  Descending Indianapolis Center
Thu 02:30:26 PM 39.4019 -84.3656 183° South 98 113 7,300  Climbing Indianapolis Center
Thu 02:31:28 PM 39.3736 -84.3700 187° South 101 116 7,200 -48 Descending Indianapolis Center
Thu 02:32:30 PM 39.3453 -84.3761 189° South 101 116 7,200  Level Indianapolis Center
Thu 02:33:32 PM 39.3142 -84.3878 196° South 100 115 7,200  Level Indianapolis Center
Thu 02:34:34 PM 39.2883 -84.3919 187° South 96 110 7,200 48 Level Indianapolis Center
Thu 02:35:36 PM 39.2619 -84.3975 189° South 94 108 7,300  Climbing Indianapolis Center
Thu 02:36:38 PM 39.2356 -84.4014 187° South 95 109 7,200 -48 Descending Indianapolis Center
Thu 02:37:40 PM 39.2097 -84.4036 184° South 93 107 7,200  Level Indianapolis Center
Thu 02:38:45 PM 39.1817 -84.4058 184° South 97 112 7,200  Level Indianapolis Center
Thu 02:39:44 PM 39.1569 -84.4139 194° South 94 108 7,200  Level Indianapolis Center
Thu 02:40:46 PM 39.1261 -84.4236 194° South 95 109 7,200  Level Indianapolis Center
Thu 02:41:48 PM 39.0989 -84.4261 184° South 97 112 7,200  Level Indianapolis Center
Thu 02:42:50 PM 39.0714 -84.4314 188° South 98 113 7,200 48 Level Indianapolis Center
Thu 02:43:52 PM 39.0500 -84.4333 184° South 95 109 7,300 49 Climbing Cincinnati TRACON
Thu 02:44:52 PM 39.0167 -84.4333 180° South 101 116 7,300  Level Cincinnati TRACON
Thu 02:45:58 PM 38.9833 -84.4333 180° South 97 112 7,300  Level Cincinnati TRACON
Thu 02:46:58 PM 38.9667 -84.4500 218° Southwest 95 109 7,300  Level Cincinnati TRACON
Thu 02:47:58 PM 38.9333 -84.4500 180° South 98 113 7,300  Level Cincinnati TRACON
Thu 02:48:58 PM 38.9000 -84.4500 180° South 99 114 7,300 -50 Level Cincinnati TRACON
Thu 02:49:58 PM 38.8833 -84.4500 180° South 91 105 7,200  Descending Cincinnati TRACON
Thu 02:50:58 PM 38.8500 -84.4667 201° Southwest 86 99 7,300  Climbing Cincinnati TRACON
Thu 02:52:09 PM 38.8294 -84.4708 189° South 92 106 7,200 172 Descending Indianapolis Center
Thu 02:53:52 PM 38.7833 -84.4667 176° South 81 93 7,800 242 Climbing Cincinnati TRACON
Thu 02:54:13 PM 38.7828 -84.4778 266° West 84 97 7,700  Descending Indianapolis Center
Thu 02:55:15 PM 38.7536 -84.4847 191° South 92 106 7,800  Climbing Indianapolis Center
Thu 02:56:17 PM 38.7281 -84.4939 196° South 94 108 7,700  Descending Indianapolis Center
Thu 02:57:19 PM 38.7042 -84.4936 179° South 87 100 7,800  Climbing Indianapolis Center
Thu 02:58:21 PM 38.6781 -84.4947 182° South 92 106 7,700 -48 Descending Indianapolis Center
Thu 02:59:23 PM 38.6511 -84.5014 191° South 97 112 7,700  Level Indianapolis Center
Thu 03:00:25 PM 38.6233 -84.5064 188° South 90 104 7,700  Level Indianapolis Center
Thu 03:01:27 PM 38.5992 -84.5114 189° South 88 101 7,700 48 Level Indianapolis Center
Thu 03:02:29 PM 38.5736 -84.5136 184° South 90 104 7,800 -435 Climbing Indianapolis Center
Thu 03:03:31 PM 38.5464 -84.5186 188° South 96 110 6,800 -1,016 Descending Indianapolis Center
Thu 03:04:33 PM 38.5158 -84.5294 196° South 98 113 5,700 -1,016 Descending Indianapolis Center
Thu 03:05:35 PM 38.4872 -84.5339 187° South 101 116 4,700 -774 Descending Indianapolis Center
Thu 03:06:37 PM 38.4611 -84.5361 184° South 102 117 4,100 -581 Descending Indianapolis Center
Thu 03:08:00 PM 38.4234 -84.5233 191° South  Level FlightAware Approximate
Thu 03:15:00 PM 38.2427 -84.5592 186° South  Level FlightAware Approximate
Thu 03:16:00 PM 38.2167 -84.5625 186° South  Level FlightAware Approximate
Thu 03:17:00 PM 38.1906 -84.5658 186° South  Level FlightAware Approximate
Thu 03:18:00 PM 38.1650 -84.5719 193° South  Level FlightAware Approximate
Thu 03:19:00 PM 38.1395 -84.5792 193° South  Level FlightAware Approximate
Thu 03:20:00 PM 38.1139 -84.5865 193° South  Level FlightAware Approximate
Thu 03:21:00 PM 38.0884 -84.5938 193° South  Level FlightAware Approximate
Thu 03:22:00 PM 38.0628 -84.6000 180° South  Level FlightAware Approximate
Thu 03:23:00 PM 38.0367 -84.6000 180° South  Level FlightAware Approximate
Thu 03:24:00 PM 38.0333 -84.6000 180° South  Level FlightAware Approximate
Thu 03:25:00 PM 38.0368 -84.6086 180° South  Level Estimated
Thu 03:26:00 PM 38.0368 -84.6086 180° South  Level Estimated
Thu 03:27:00 PM 38.0368 -84.6086 180° South  Level Estimated
Thu 03:28:00 PM 38.0368 -84.6086 180° South  Level Estimated
Thu 03:29:00 PM 38.0368 -84.6086 180° South  Level Estimated
Thu 03:30:00 PM 38.0368 -84.6086 180° South  Level Estimated

Login

Don't have an account? Register now (free) for customized features, flight alerts, and more!